Time;durP1;ratioP1;P1;durP2;ratioP2;P2;SDS_P1;SDS_P2;PMS_P1;PMS_P2;Temp;Humidity;BMP_temperature;BMP_pressure;BME280_temperature;BME280_humidity;BME280_pressure;Samples;Min_cycle;Max_cycle;Signal;HPM_P1;HPM_P2
2022/10/07 00:11:39;;;;;;;27.90;14.60;;;12.70;99.90;;;;;;4963798;24;20063;-88
2022/10/07 01:35:21;;;;;;;24.63;13.18;;;12.20;99.90;;;;;;5859225;24;20896;31
2022/10/07 02:23:56;;;;;;;25.48;13.55;;;11.80;99.90;;;;;;2697255;24;20314;-87
2022/10/07 03:01:47;;;;;;;25.30;12.68;;;11.50;99.90;;;;;;5765272;24;20062;-87
2022/10/07 03:37:13;;;;;;;24.35;13.13;;;11.30;99.90;;;;;;5274046;24;20043;-89
2022/10/07 03:39:54;;;;;;;24.58;12.85;;;11.30;99.90;;;;;;4731581;30;20048;-88
2022/10/07 03:42:27;;;;;;;26.08;14.93;;;11.20;99.90;;;;;;4758326;30;20090;-89
2022/10/07 04:01:36;;;;;;;23.65;12.95;;;11.10;99.90;;;;;;5701427;24;20017;-88
2022/10/07 04:04:31;;;;;;;22.65;12.35;;;11.10;99.90;;;;;;4780155;30;20048;-88
2022/10/07 04:43:45;;;;;;;30.85;16.65;;;10.90;99.90;;;;;;5489825;24;20061;-89
2022/10/07 05:19:22;;;;;;;29.70;16.58;;;10.70;99.90;;;;;;5122921;24;20056;-89
2022/10/07 05:36:11;;;;;;;33.88;18.95;;;10.70;99.90;;;;;;5168281;24;20061;-89
2022/10/07 05:39:01;;;;;;;31.70;18.65;;;10.90;99.90;;;;;;4715805;30;20056;-88
2022/10/07 05:49:19;;;;;;;40.67;20.13;;;10.90;99.90;;;;;;5040964;24;20155;-87
2022/10/07 06:04:36;;;;;;;46.08;23.35;;;11.30;99.90;;;;;;4794471;24;20045;-86
2022/10/07 06:07:05;;;;;;;46.75;22.92;;;11.40;99.90;;;;;;4758061;30;20047;-87
2022/10/07 06:13:24;;;;;;;49.40;23.85;;;11.50;99.90;;;;;;4765311;30;20134;-88
2022/10/07 06:16:19;;;;;;;47.88;24.80;;;11.70;99.90;;;;;;4767833;30;20141;-87
2022/10/07 06:19:32;;;;;;;46.85;23.73;;;11.80;99.90;;;;;;4736228;30;20045;-86
2022/10/07 06:23:37;;;;;;;42.97;23.98;;;11.80;99.90;;;;;;4675362;30;20050;-86
2022/10/07 06:26:32;;;;;;;47.50;25.40;;;12.00;99.90;;;;;;4658420;30;20050;-86
2022/10/07 06:30:09;;;;;;;45.40;26.48;;;11.50;99.90;;;;;;4648573;30;20091;-86
2022/10/07 06:33:21;;;;;;;38.58;23.27;;;12.20;99.90;;;;;;4646447;30;20200;-87
2022/10/07 06:36:48;;;;;;;41.33;24.08;;;12.30;99.90;;;;;;4635084;31;20115;-87
2022/10/07 06:40:00;;;;;;;42.55;24.98;;;12.40;99.90;;;;;;4597532;31;20085;-87
2022/10/07 06:43:36;;;;;;;47.25;25.92;;;12.60;99.90;;;;;;4547160;31;20053;-86
2022/10/07 06:47:20;;;;;;;46.15;25.10;;;12.60;99.90;;;;;;4527850;31;20086;-87
2022/10/07 06:50:19;;;;;;;45.92;25.65;;;12.80;99.90;;;;;;4492236;31;20036;-87
2022/10/07 06:53:29;;;;;;;38.45;22.88;;;13.00;99.90;;;;;;4438270;32;20061;-87
2022/10/07 06:57:16;;;;;;;41.10;24.48;;;13.10;99.90;;;;;;4417759;32;20095;-87
2022/10/07 07:01:15;;;;;;;36.83;23.10;;;13.10;99.90;;;;;;4435924;32;20066;-88
2022/10/07 07:04:43;;;;;;;32.75;20.13;;;12.70;99.90;;;;;;4369888;32;20134;-87
2022/10/07 07:08:26;;;;;;;31.90;20.13;;;13.60;99.90;;;;;;4367606;32;20062;-87
2022/10/07 07:12:01;;;;;;;36.15;21.60;;;13.60;99.90;;;;;;4393104;32;20043;-87
2022/10/07 07:15:59;;;;;;;34.97;20.70;;;13.90;99.90;;;;;;4428187;32;20033;-86
2022/10/07 07:18:45;;;;;;;31.40;19.67;;;14.00;99.90;;;;;;4429859;32;20058;-86
2022/10/07 07:22:26;;;;;;;29.15;19.17;;;14.10;99.90;;;;;;4502080;31;20099;-85
2022/10/07 07:25:49;;;;;;;29.27;19.10;;;14.30;99.90;;;;;;4499846;31;20051;-86
2022/10/07 07:30:06;;;;;;;27.17;18.33;;;14.30;99.90;;;;;;4530928;31;20065;-86
2022/10/07 07:37:09;;;;;;;30.13;17.80;;;14.50;99.90;;;;;;4891839;24;20086;-86
2022/10/07 07:40:34;;;;;;;29.77;18.42;;;14.60;99.90;;;;;;4788935;30;20059;-87
2022/10/07 07:44:11;;;;;;;27.48;17.60;;;14.70;99.90;;;;;;4755772;30;20064;-87
2022/10/07 07:58:47;;;;;;;22.23;13.55;;;15.10;99.90;;;;;;4816548;29;20095;-87
2022/10/07 08:01:34;;;;;;;28.30;16.80;;;15.20;99.90;;;;;;4776076;30;20081;-86
2022/10/07 08:04:43;;;;;;;21.85;12.98;;;14.70;99.90;;;;;;5345489;24;20051;-86
2022/10/07 08:07:20;;;;;;;19.45;11.80;;;15.50;99.90;;;;;;4789760;29;20071;-86
2022/10/07 08:09:50;;;;;;;16.25;11.32;;;15.30;99.90;;;;;;4764315;30;20453;-85
2022/10/07 08:23:05;;;;;;;14.05;9.38;;;15.60;99.90;;;;;;5083783;24;20469;-87
2022/10/07 08:25:35;;;;;;;16.35;10.02;;;15.70;99.90;;;;;;4755894;30;20117;-85
2022/10/07 08:28:05;;;;;;;14.18;9.38;;;15.70;99.90;;;;;;4770005;30;20055;-86
2022/10/07 08:31:02;;;;;;;14.70;9.02;;;15.80;99.90;;;;;;4767711;30;20661;-86
2022/10/07 08:33:39;;;;;;;13.95;9.43;;;15.90;99.90;;;;;;4756505;30;20059;-88
2022/10/07 08:36:20;;;;;;;14.20;8.98;;;16.00;99.90;;;;;;4741782;30;20099;-87
2022/10/07 08:39:00;;;;;;;15.55;8.73;;;15.90;99.90;;;;;;4762765;30;20034;-84
2022/10/07 08:41:33;;;;;;;11.93;7.90;;;16.00;99.90;;;;;;4762535;30;20052;-84
2022/10/07 08:48:37;;;;;;;12.02;7.35;;;16.20;99.90;;;;;;5289750;24;20061;-86
2022/10/07 08:57:51;;;;;;;11.32;7.72;;;16.40;99.90;;;;;;5302956;24;20054;-86
2022/10/07 09:00:23;;;;;;;11.77;7.28;;;16.40;99.90;;;;;;4779872;29;20129;-85
2022/10/07 09:03:14;;;;;;;11.63;7.25;;;16.60;99.90;;;;;;4817936;29;20046;-85
2022/10/07 09:20:37;;;;;;;12.30;6.05;;;17.00;99.90;;;;;;5905905;24;20054;-86
2022/10/07 11:20:53;;;;;;;6.40;3.38;;;18.60;95.90;;;;;;5019010;24;20066;-90
2022/10/07 11:34:21;;;;;;;6.47;3.45;;;18.80;95.70;;;;;;4857092;24;20143;-93
2022/10/07 11:41:07;;;;;;;7.03;2.83;;;18.80;94.70;;;;;;4883455;24;20051;-91
2022/10/07 11:43:44;;;;;;;8.57;3.97;;;18.90;94.20;;;;;;4804990;29;20055;-94
2022/10/07 11:46:32;;;;;;;6.35;3.47;;;18.80;94.70;;;;;;4805273;29;20054;-94
2022/10/07 11:49:24;;;;;;;7.03;3.80;;;18.90;96.20;;;;;;4786905;29;20225;-94
2022/10/07 11:58:00;;;;;;;7.80;3.60;;;19.00;94.70;;;;;;4836110;24;20051;-95
2022/10/07 12:00:34;;;;;;;4.95;2.92;;;19.00;96.20;;;;;;4780286;29;20046;-93
2022/10/07 12:03:36;;;;;;;6.18;3.08;;;19.10;94.90;;;;;;4778690;29;20292;-95
2022/10/07 12:06:10;;;;;;;18.67;7.10;;;19.10;94.40;;;;;;4791417;29;20154;-95
2022/10/07 12:08:43;;;;;;;10.55;4.97;;;19.10;96.10;;;;;;4778815;29;20050;-95
2022/10/07 12:11:11;;;;;;;14.90;5.05;;;19.00;95.20;;;;;;4782506;29;20051;-95
2022/10/07 12:13:40;;;;;;;12.73;6.63;;;19.00;94.80;;;;;;4776764;29;20058;-94
2022/10/07 12:19:32;;;;;;;5.78;3.40;;;19.00;94.20;;;;;;4844595;24;20062;-91
2022/10/07 12:22:08;;;;;;;5.60;3.05;;;19.00;93.70;;;;;;4787477;29;20046;-93
2022/10/07 12:24:44;;;;;;;9.85;4.50;;;19.10;92.90;;;;;;4785322;29;20111;-94
2022/10/07 12:27:33;;;;;;;7.43;3.75;;;19.00;92.80;;;;;;4793015;29;20054;-94
2022/10/07 12:39:36;;;;;;;16.45;6.45;;;19.20;93.00;;;;;;4817742;24;20131;-94
2022/10/07 12:42:06;;;;;;;4.53;2.70;;;19.00;93.10;;;;;;4762303;29;20051;-94
2022/10/07 12:44:51;;;;;;;32.55;8.48;;;19.10;91.80;;;;;;4780085;29;20058;-94
2022/10/07 12:47:29;;;;;;;4.38;2.60;;;19.00;93.90;;;;;;4756959;29;20488;-95
2022/10/07 12:50:06;;;;;;;8.68;3.85;;;19.20;92.80;;;;;;4786399;29;20084;-93
2022/10/07 12:52:54;;;;;;;12.30;5.03;;;19.20;94.80;;;;;;4782273;29;20055;-92
2022/10/07 12:55:39;;;;;;;6.68;2.80;;;19.20;92.80;;;;;;4788500;29;20049;-94
2022/10/07 13:02:49;;;;;;;7.35;4.38;;;18.80;92.20;;;;;;4838732;24;20070;-94
2022/10/07 13:14:28;;;;;;;6.72;3.00;;;18.80;92.30;;;;;;4817000;24;20061;-92
2022/10/07 13:17:27;;;;;;;18.92;9.95;;;19.20;91.40;;;;;;4790818;29;20144;-96
2022/10/07 13:20:17;;;;;;;6.03;2.63;;;19.10;91.80;;;;;;4791370;29;20062;-94
2022/10/07 13:22:48;;;;;;;4.53;2.63;;;19.10;91.30;;;;;;4809988;29;20046;-94
2022/10/07 13:25:19;;;;;;;5.00;2.90;;;19.10;92.60;;;;;;4791112;29;20058;-95
2022/10/07 13:27:53;;;;;;;4.57;2.13;;;19.00;92.10;;;;;;4789806;29;20053;-95
2022/10/07 13:30:41;;;;;;;19.65;9.45;;;19.00;92.00;;;;;;4799683;29;20058;-94
2022/10/07 13:33:32;;;;;;;173.85;77.55;;;19.00;91.90;;;;;;4799942;29;20054;-94
2022/10/07 13:36:31;;;;;;;17.92;8.25;;;19.00;92.20;;;;;;4759575;30;20051;-92
2022/10/07 13:42:25;;;;;;;16.25;9.23;;;18.90;92.30;;;;;;4810781;24;20054;-95
2022/10/07 13:44:53;;;;;;;6.57;3.65;;;18.90;92.40;;;;;;4778294;29;20051;-94
2022/10/07 13:47:25;;;;;;;14.02;6.28;;;18.90;92.70;;;;;;4779653;29;20070;-92
2022/10/07 13:49:53;;;;;;;9.77;4.80;;;18.90;93.30;;;;;;4778156;29;20051;-92
2022/10/07 13:52:31;;;;;;;5.00;3.05;;;18.90;93.50;;;;;;4773983;29;20116;-96
2022/10/07 13:54:58;;;;;;;5.68;3.75;;;18.90;93.10;;;;;;4758814;30;20062;-91
2022/10/07 13:57:29;;;;;;;22.40;10.10;;;18.90;93.30;;;;;;4763764;29;20061;-93
2022/10/07 13:59:58;;;;;;;15.60;8.32;;;18.90;93.80;;;;;;4776438;29;20511;-93
2022/10/07 14:02:26;;;;;;;17.55;7.28;;;18.90;93.90;;;;;;4766683;29;20426;-92
2022/10/07 14:08:49;;;;;;;11.65;7.03;;;18.80;94.50;;;;;;4827183;24;20941;-94
2022/10/07 14:11:20;;;;;;;7.55;3.72;;;18.80;94.70;;;;;;4777420;29;20503;-96
2022/10/07 14:13:48;;;;;;;10.77;3.70;;;18.70;94.90;;;;;;4779577;29;20130;-92
2022/10/07 14:16:21;;;;;;;9.00;4.50;;;18.70;95.20;;;;;;4774741;29;20852;-92
2022/10/07 14:18:51;;;;;;;9.85;5.55;;;18.70;94.40;;;;;;4766701;29;20133;-94
2022/10/07 14:21:18;;;;;;;6.32;3.63;;;18.80;94.40;;;;;;4791475;29;20069;-95
2022/10/07 14:23:46;;;;;;;9.80;4.20;;;18.70;94.30;;;;;;4780256;29;20051;-94
2022/10/07 14:26:15;;;;;;;4.78;3.03;;;18.60;94.80;;;;;;4783312;29;20050;-94
2022/10/07 14:28:42;;;;;;;7.38;2.72;;;18.70;94.30;;;;;;4790415;29;20047;-96
2022/10/07 14:37:50;;;;;;;4.95;2.97;;;18.60;94.70;;;;;;4820859;24;20099;-94
2022/10/07 14:40:23;;;;;;;3.75;2.38;;;18.50;95.20;;;;;;4798113;29;20050;-93
2022/10/07 14:42:53;;;;;;;5.43;2.40;;;18.50;95.70;;;;;;4781356;29;20510;-87
2022/10/07 14:45:21;;;;;;;3.75;2.33;;;18.50;95.20;;;;;;4796157;29;20050;-94
2022/10/07 14:47:48;;;;;;;5.22;2.60;;;18.50;95.10;;;;;;4765566;29;20546;-91
2022/10/07 14:50:18;;;;;;;4.35;2.50;;;18.40;95.30;;;;;;4798296;29;20047;-93
2022/10/07 14:52:50;;;;;;;3.55;1.85;;;18.40;95.60;;;;;;4776285;29;20075;-93
2022/10/07 14:55:25;;;;;;;5.00;2.50;;;18.40;95.80;;;;;;4786894;29;20067;-91
2022/10/07 14:57:53;;;;;;;5.90;2.38;;;18.40;95.30;;;;;;4793010;29;20051;-90
2022/10/07 15:00:23;;;;;;;9.30;3.15;;;18.40;95.60;;;;;;4780924;29;20042;-95
2022/10/07 15:02:51;;;;;;;4.50;2.72;;;18.40;95.10;;;;;;4791740;29;20047;-95
2022/10/07 15:05:21;;;;;;;6.57;2.30;;;18.30;95.70;;;;;;4776940;29;20039;-96
2022/10/07 15:07:49;;;;;;;6.10;2.55;;;18.20;96.40;;;;;;4774008;29;20051;-95
2022/10/07 15:10:20;;;;;;;6.43;3.10;;;18.20;96.30;;;;;;4781515;29;20055;-95
2022/10/07 15:12:47;;;;;;;4.35;2.30;;;18.20;96.40;;;;;;4795328;29;20052;-95
2022/10/07 15:15:15;;;;;;;6.22;2.53;;;18.20;97.20;;;;;;4760496;29;20133;-95
2022/10/07 15:17:43;;;;;;;6.80;2.50;;;18.10;97.50;;;;;;4788360;29;20055;-95
2022/10/07 15:20:13;;;;;;;3.90;2.20;;;18.10;97.80;;;;;;4765652;29;20050;-93
2022/10/07 15:22:40;;;;;;;4.80;2.22;;;18.00;98.20;;;;;;4781543;29;20055;-95
2022/10/07 15:25:10;;;;;;;4.95;2.42;;;18.00;98.40;;;;;;4786028;29;20116;-93
2022/10/07 15:27:37;;;;;;;5.57;2.60;;;18.00;98.40;;;;;;4780556;29;20082;-93
2022/10/07 15:30:06;;;;;;;5.85;2.40;;;18.00;98.70;;;;;;4785206;29;20057;-94
2022/10/07 15:32:33;;;;;;;7.18;2.40;;;17.90;99.30;;;;;;4768018;29;20047;-94
2022/10/07 15:35:01;;;;;;;6.05;2.78;;;17.80;99.90;;;;;;4772493;29;20055;-96
2022/10/07 15:37:28;;;;;;;5.65;2.60;;;17.80;99.90;;;;;;4769502;29;20058;-95
2022/10/07 15:39:57;;;;;;;6.55;3.60;;;17.80;99.90;;;;;;4786140;29;20057;-95
2022/10/07 15:42:25;;;;;;;5.03;2.90;;;17.70;99.90;;;;;;4794293;29;20482;-94
2022/10/07 15:44:53;;;;;;;8.35;3.03;;;17.70;99.90;;;;;;4794754;29;20054;-94
2022/10/07 15:47:20;;;;;;;6.15;3.33;;;17.60;99.90;;;;;;4780872;29;21002;-92
2022/10/07 15:49:48;;;;;;;12.38;3.78;;;17.50;99.90;;;;;;4793298;29;20057;-93
2022/10/07 15:52:15;;;;;;;5.93;3.08;;;17.50;99.90;;;;;;4778329;29;20051;-93
2022/10/07 15:54:45;;;;;;;11.95;4.18;;;17.50;99.90;;;;;;4765150;29;20210;-93
2022/10/07 15:57:13;;;;;;;7.45;3.03;;;17.40;99.90;;;;;;4764049;29;20074;-92
2022/10/07 15:59:41;;;;;;;8.55;3.20;;;17.40;99.90;;;;;;4785885;29;20049;-92
2022/10/07 16:02:14;;;;;;;8.43;3.80;;;17.30;99.90;;;;;;4773517;29;20079;-92
2022/10/07 16:04:43;;;;;;;6.95;3.00;;;17.30;99.90;;;;;;4774738;29;20479;-92
2022/10/07 16:07:10;;;;;;;11.13;4.50;;;17.20;99.90;;;;;;4767418;29;20051;-92
2022/10/07 16:09:38;;;;;;;6.47;3.42;;;17.10;99.90;;;;;;4781087;29;20061;-93
2022/10/07 16:12:07;;;;;;;10.93;3.88;;;17.20;99.90;;;;;;4790646;29;20079;-92
2022/10/07 16:14:34;;;;;;;8.38;3.67;;;17.10;99.90;;;;;;4765281;29;20051;-92
2022/10/07 16:17:07;;;;;;;10.13;4.22;;;17.10;99.90;;;;;;4778621;29;20047;-91
2022/10/07 16:19:34;;;;;;;;;;;17.00;99.90;;;;;;4783214;29;20057;-92
2022/10/07 16:22:01;;;;;;;9.95;4.28;;;17.00;99.90;;;;;;4782190;29;20670;-92
2022/10/07 16:24:32;;;;;;;14.65;5.25;;;16.90;99.90;;;;;;4784854;29;20055;-92
